createdAt,value
2018-01-07T00:01:48.819Z,5.55
2018-01-07T00:04:15.874Z,4.90
2018-01-07T00:06:42.938Z,6.10
2018-01-07T00:09:09.306Z,5.62
2018-01-07T00:11:35.666Z,6.25
2018-01-07T00:14:01.989Z,5.72
2018-01-07T00:16:28.326Z,5.62
2018-01-07T00:18:55.406Z,5.32
2018-01-07T00:21:22.485Z,6.95
2018-01-07T00:23:48.826Z,5.75
2018-01-07T00:26:15.141Z,6.75
2018-01-07T00:28:41.457Z,7.87
2018-01-07T00:31:07.780Z,5.90
2018-01-07T00:33:34.903Z,6.45
2018-01-07T00:36:01.223Z,5.47
2018-01-07T00:38:27.544Z,5.57
2018-01-07T00:40:53.888Z,4.37
2018-01-07T00:43:20.214Z,4.30
2018-01-07T00:45:46.558Z,4.05
2018-01-07T00:48:12.874Z,4.05
2018-01-07T00:50:39.198Z,3.95
2018-01-07T00:53:05.552Z,4.20
2018-01-07T00:55:31.892Z,4.37
2018-01-07T00:57:58.234Z,3.45
2018-01-07T01:00:25.316Z,3.85
2018-01-07T01:02:51.649Z,5.00
2018-01-07T01:05:17.970Z,5.03
2018-01-07T01:07:44.296Z,4.75
2018-01-07T01:10:10.654Z,6.28
2018-01-07T01:12:36.990Z,5.60
2018-01-07T01:15:03.342Z,5.70
2018-01-07T01:17:29.692Z,4.60
2018-01-07T01:19:56.010Z,4.57
2018-01-07T01:22:22.358Z,5.18
2018-01-07T01:24:48.698Z,5.50
2018-01-07T01:27:15.966Z,5.68
2018-01-07T01:29:43.062Z,5.75
2018-01-07T01:32:09.383Z,6.65
2018-01-07T01:34:36.741Z,6.72
2018-01-07T01:37:03.071Z,5.87
2018-01-07T01:39:30.158Z,6.35
2018-01-07T01:41:56.471Z,5.93
2018-01-07T01:44:22.815Z,5.55
2018-01-07T01:46:49.175Z,5.90
2018-01-07T01:49:22.187Z,5.65
2018-01-07T01:51:48.514Z,7.50
2018-01-07T01:54:14.857Z,5.22
2018-01-07T01:56:41.204Z,5.72
2018-01-07T01:59:07.743Z,6.25
2018-01-07T02:01:34.060Z,7.82
2018-01-07T02:04:00.404Z,7.40
2018-01-07T02:06:27.722Z,5.62
2018-01-07T02:08:54.034Z,5.53
2018-01-07T02:11:21.106Z,6.65
2018-01-07T02:13:47.435Z,7.20
2018-01-07T02:16:13.825Z,7.87
2018-01-07T02:18:40.151Z,7.90
2018-01-07T02:21:07.215Z,9.57
2018-01-07T02:23:33.526Z,8.90
2018-01-07T02:25:59.868Z,7.70
2018-01-07T02:28:26.206Z,8.40
2018-01-07T02:30:52.522Z,8.52
2018-01-07T02:33:18.864Z,8.98
2018-01-07T02:35:45.178Z,11.20
2018-01-07T02:38:12.318Z,10.25
2018-01-07T02:40:38.657Z,8.60
2018-01-07T02:43:04.975Z,8.70
2018-01-07T02:45:31.319Z,8.55
2018-01-07T02:47:57.629Z,9.98
2018-01-07T02:50:23.966Z,8.80
2018-01-07T02:52:50.314Z,12.13
2018-01-07T02:55:16.635Z,12.52
2018-01-07T02:57:42.948Z,11.15
2018-01-07T03:00:09.305Z,11.77
2018-01-07T03:02:36.641Z,12.73
2018-01-07T03:05:03.016Z,15.13
2018-01-07T03:07:29.321Z,16.52
2018-01-07T03:09:55.631Z,16.70
2018-01-07T03:12:22.870Z,10.75
2018-01-07T03:14:50.534Z,9.40
2018-01-07T03:17:16.869Z,8.13
2018-01-07T03:19:43.217Z,11.70
2018-01-07T03:22:09.561Z,13.07
2018-01-07T03:24:35.958Z,12.95
2018-01-07T03:27:03.068Z,12.57
2018-01-07T03:29:29.402Z,13.95
2018-01-07T03:31:55.746Z,12.73
2018-01-07T03:34:22.062Z,11.00
2018-01-07T03:36:48.378Z,10.05
2018-01-07T03:39:14.700Z,9.55
2018-01-07T03:41:41.041Z,7.90
2018-01-07T03:44:07.360Z,7.60
2018-01-07T03:46:33.680Z,8.25
2018-01-07T03:49:00.049Z,8.45
2018-01-07T03:51:26.378Z,7.62
2018-01-07T03:53:52.726Z,8.15
2018-01-07T03:56:19.062Z,8.05
2018-01-07T03:58:46.135Z,9.00
2018-01-07T04:01:12.466Z,8.98
2018-01-07T04:03:39.519Z,6.95
2018-01-07T04:06:05.902Z,9.40
2018-01-07T04:08:32.225Z,8.60
2018-01-07T04:10:58.545Z,7.68
2018-01-07T04:13:24.869Z,9.30
2018-01-07T04:15:51.266Z,8.75
2018-01-07T04:18:18.351Z,8.35
2018-01-07T04:20:44.661Z,9.05
2018-01-07T04:23:11.134Z,9.27
2018-01-07T04:25:37.458Z,9.07
2018-01-07T04:28:03.795Z,7.53
2018-01-07T04:30:30.187Z,8.05
2018-01-07T04:32:56.520Z,8.13
2018-01-07T04:35:22.848Z,8.63
2018-01-07T04:37:49.923Z,9.40
2018-01-07T04:40:16.247Z,9.77
2018-01-07T04:42:43.374Z,8.65
2018-01-07T04:45:10.450Z,9.43
2018-01-07T04:47:36.770Z,7.70
2018-01-07T04:50:03.078Z,7.90
2018-01-07T04:52:29.423Z,7.18
2018-01-07T04:54:55.767Z,7.70
2018-01-07T04:57:22.133Z,7.70
2018-01-07T04:59:48.437Z,8.40
2018-01-07T05:02:14.758Z,7.40
2018-01-07T05:04:41.089Z,7.12
2018-01-07T05:07:07.411Z,6.95
2018-01-07T05:09:33.782Z,7.85
2018-01-07T05:12:00.103Z,7.55
2018-01-07T05:14:26.427Z,7.68
2018-01-07T05:16:52.774Z,7.93
2018-01-07T05:19:19.082Z,7.40
2018-01-07T05:21:45.393Z,7.25
2018-01-07T05:24:12.478Z,7.40
2018-01-07T05:26:38.806Z,7.95
2018-01-07T05:29:05.854Z,7.85
2018-01-07T05:31:32.187Z,7.15
2018-01-07T05:33:58.499Z,6.60
2018-01-07T05:36:24.843Z,6.95
2018-01-07T05:38:51.171Z,6.20
2018-01-07T05:41:17.491Z,7.20
2018-01-07T05:43:43.813Z,7.50
2018-01-07T05:46:10.133Z,7.60
2018-01-07T05:48:37.210Z,7.85
2018-01-07T05:51:03.544Z,8.30
2018-01-07T05:53:29.865Z,8.48
2018-01-07T05:55:56.266Z,8.27
2018-01-07T05:58:22.582Z,7.25
2018-01-07T06:00:48.937Z,6.32
2018-01-07T06:03:16.010Z,7.22
2018-01-07T06:05:43.062Z,6.70
2018-01-07T06:08:09.378Z,6.97
2018-01-07T06:10:35.708Z,7.03
2018-01-07T06:13:02.804Z,5.68
2018-01-07T06:15:29.114Z,6.70
2018-01-07T06:17:55.422Z,7.82
2018-01-07T06:20:21.769Z,8.00
2018-01-07T06:22:48.119Z,6.87
2018-01-07T06:25:14.454Z,7.00
2018-01-07T06:27:40.782Z,7.68
2018-01-07T06:30:07.147Z,7.47
2018-01-07T06:32:33.463Z,7.32
2018-01-07T06:34:59.783Z,7.32
2018-01-07T06:37:26.118Z,8.00
2018-01-07T06:39:52.920Z,7.30
2018-01-07T06:42:19.962Z,9.60
2018-01-07T06:44:48.039Z,9.93
2018-01-07T06:47:15.138Z,11.00
2018-01-07T06:49:41.482Z,9.45
2018-01-07T06:52:07.842Z,10.75
2018-01-07T06:54:34.927Z,10.05
2018-01-07T06:57:01.258Z,10.15
2018-01-07T06:59:27.572Z,10.60
2018-01-07T07:01:54.250Z,9.90
2018-01-07T07:04:20.578Z,10.05
2018-01-07T07:06:46.948Z,10.70
2018-01-07T07:09:13.283Z,9.35
2018-01-07T07:11:40.602Z,10.23
2018-01-07T07:14:06.966Z,9.80
2018-01-07T07:16:34.033Z,10.43
2018-01-07T07:19:01.081Z,11.88
2018-01-07T07:21:28.165Z,10.25
2018-01-07T07:23:54.531Z,10.02
2018-01-07T07:26:20.926Z,10.93
2018-01-07T07:28:47.234Z,10.00
2018-01-07T07:31:13.570Z,9.07
2018-01-07T07:33:39.912Z,10.15
2018-01-07T07:36:06.235Z,9.40
2018-01-07T07:38:33.574Z,9.48
2018-01-07T07:41:00.630Z,10.25
2018-01-07T07:43:26.939Z,10.13
2018-01-07T07:45:53.258Z,11.23
2018-01-07T07:48:19.606Z,10.68
2018-01-07T07:50:46.701Z,11.57
2018-01-07T07:53:13.048Z,12.10
2018-01-07T07:55:39.374Z,20.98
2018-01-07T07:58:05.718Z,15.68
2018-01-07T08:00:32.035Z,20.40
2018-01-07T08:02:58.379Z,22.10
2018-01-07T08:05:24.698Z,17.67
2018-01-07T08:07:51.039Z,15.40
2018-01-07T08:10:17.374Z,15.30
2018-01-07T08:12:43.798Z,16.60
2018-01-07T08:15:10.166Z,22.17
2018-01-07T08:17:36.518Z,23.00
2018-01-07T08:20:03.580Z,16.50
2018-01-07T08:22:29.897Z,12.73
2018-01-07T08:24:56.961Z,11.30
2018-01-07T08:27:23.339Z,12.32
2018-01-07T08:29:49.660Z,18.80
2018-01-07T08:32:16.000Z,14.93
2018-01-07T08:34:42.329Z,12.30
2018-01-07T08:37:08.672Z,11.57
2018-01-07T08:39:35.012Z,16.25
2018-01-07T08:42:01.342Z,11.20
2018-01-07T08:44:27.663Z,12.50
2018-01-07T08:46:53.990Z,13.02
2018-01-07T08:49:20.326Z,31.12
2018-01-07T08:51:46.673Z,13.02
2018-01-07T08:54:13.030Z,14.80
2018-01-07T08:56:39.359Z,14.80
2018-01-07T08:59:05.706Z,13.73
2018-01-07T09:01:32.039Z,15.30
2018-01-07T09:03:58.427Z,12.75
2018-01-07T09:06:24.760Z,11.85
2018-01-07T09:08:51.831Z,10.98
2018-01-07T09:11:18.895Z,9.70
2018-01-07T09:13:45.235Z,11.20
2018-01-07T09:16:11.594Z,9.75
2018-01-07T09:18:37.916Z,10.45
2018-01-07T09:21:04.254Z,9.65
2018-01-07T09:23:30.586Z,10.15
2018-01-07T09:25:56.918Z,10.90
2018-01-07T09:28:23.258Z,10.13
2018-01-07T09:30:49.633Z,11.18
2018-01-07T09:33:16.830Z,13.10
2018-01-07T09:35:43.565Z,11.18
2018-01-07T09:38:09.894Z,11.90
2018-01-07T09:40:36.251Z,10.10
2018-01-07T09:43:02.566Z,10.75
2018-01-07T09:45:28.916Z,9.98
2018-01-07T09:47:55.228Z,14.25
2018-01-07T09:50:21.604Z,16.87
2018-01-07T09:52:48.695Z,29.85
2018-01-07T09:55:15.027Z,9.15
2018-01-07T09:57:41.354Z,10.40
2018-01-07T10:00:07.673Z,10.70
2018-01-07T10:02:34.010Z,10.43
2018-01-07T10:05:00.363Z,10.32
2018-01-07T10:07:26.687Z,9.95
2018-01-07T10:09:53.014Z,11.18
2018-01-07T10:12:19.335Z,11.00
2018-01-07T10:14:45.686Z,10.20
2018-01-07T10:17:12.038Z,10.90
2018-01-07T10:19:39.402Z,10.57
2018-01-07T10:22:05.714Z,11.77
2018-01-07T10:24:32.045Z,10.02
2018-01-07T10:26:58.380Z,11.07
2018-01-07T10:29:24.806Z,10.82
2018-01-07T10:31:51.141Z,11.18
2018-01-07T10:34:17.507Z,11.00
2018-01-07T10:36:43.871Z,11.82
2018-01-07T10:39:10.186Z,11.35
2018-01-07T10:41:37.282Z,12.10
2018-01-07T10:44:03.638Z,12.07
2018-01-07T10:46:29.974Z,11.93
2018-01-07T10:48:56.343Z,12.45
2018-01-07T10:51:23.461Z,12.02
2018-01-07T10:53:49.795Z,12.35
2018-01-07T10:56:16.143Z,9.68
2018-01-07T10:58:43.282Z,11.10
2018-01-07T11:01:15.840Z,11.30
2018-01-07T11:03:42.178Z,11.35
2018-01-07T11:06:08.550Z,11.48
2018-01-07T11:08:34.867Z,12.27
2018-01-07T11:11:01.971Z,12.68
2018-01-07T11:13:28.289Z,18.30
2018-01-07T11:15:54.665Z,18.52
2018-01-07T11:18:20.986Z,17.40
2018-01-07T11:20:49.110Z,16.95
2018-01-07T11:23:16.487Z,19.30
2018-01-07T11:25:42.839Z,20.88
2018-01-07T11:28:09.180Z,15.02
2018-01-07T11:30:35.530Z,15.15
2018-01-07T11:33:01.871Z,16.17
2018-01-07T11:35:28.958Z,14.27
2018-01-07T11:37:55.371Z,14.48
2018-01-07T11:40:22.710Z,14.13
2018-01-07T11:42:49.822Z,14.68
2018-01-07T11:45:16.168Z,14.13
2018-01-07T11:47:42.546Z,16.15
2018-01-07T11:50:08.883Z,14.57
2018-01-07T11:52:35.197Z,14.60
2018-01-07T11:55:02.285Z,17.12
2018-01-07T11:57:28.618Z,14.95
2018-01-07T11:59:54.982Z,13.93
2018-01-07T12:02:21.313Z,17.52
2018-01-07T12:04:47.702Z,16.95
2018-01-07T12:07:14.050Z,18.98
2018-01-07T12:09:40.398Z,16.27
2018-01-07T12:12:06.746Z,16.92
2018-01-07T12:14:33.077Z,16.12
2018-01-07T12:16:59.457Z,16.12
2018-01-07T12:19:25.811Z,18.25
2018-01-07T12:21:52.159Z,17.60
2018-01-07T12:24:18.534Z,13.98
2018-01-07T12:26:44.857Z,17.37
2018-01-07T12:29:12.979Z,16.48
2018-01-07T12:31:39.334Z,15.88
2018-01-07T12:34:05.663Z,17.37
2018-01-07T12:36:32.026Z,17.25
2018-01-07T12:38:59.103Z,16.17
2018-01-07T12:41:26.466Z,13.98
2018-01-07T12:43:52.786Z,15.35
2018-01-07T12:46:19.121Z,18.15
2018-01-07T12:48:45.492Z,20.58
2018-01-07T12:51:12.620Z,14.10
2018-01-07T12:53:38.944Z,16.10
2018-01-07T12:56:05.434Z,13.57
2018-01-07T12:58:32.554Z,17.37
2018-01-07T13:00:58.915Z,14.27
2018-01-07T13:03:25.997Z,20.52
2018-01-07T13:05:52.342Z,13.77
2018-01-07T13:08:18.677Z,13.80
2018-01-07T13:10:45.020Z,15.13
2018-01-07T13:13:11.370Z,18.08
2018-01-07T13:15:37.703Z,14.15
2018-01-07T13:18:04.114Z,13.27
2018-01-07T13:20:30.448Z,13.60
2018-01-07T13:22:56.766Z,14.38
2018-01-07T13:25:23.842Z,12.15
2018-01-07T13:27:50.246Z,14.43
2018-01-07T13:30:16.581Z,13.95
2018-01-07T13:32:42.896Z,14.65
2018-01-07T13:35:09.223Z,12.80
2018-01-07T13:37:35.573Z,13.27
2018-01-07T13:40:01.935Z,18.12
2018-01-07T13:42:28.272Z,14.43
2018-01-07T13:44:54.594Z,16.95
2018-01-07T13:47:20.963Z,15.45
2018-01-07T13:49:48.077Z,15.23
2018-01-07T13:52:14.449Z,20.65
2018-01-07T13:54:41.535Z,15.73
2018-01-07T13:57:07.896Z,12.05
2018-01-07T13:59:34.274Z,13.35
2018-01-07T14:02:00.613Z,15.45
2018-01-07T14:04:26.955Z,14.25
2018-01-07T14:06:53.274Z,13.20
2018-01-07T14:09:19.603Z,13.00
2018-01-07T14:11:45.947Z,13.35
2018-01-07T14:14:12.303Z,13.90
2018-01-07T14:16:38.633Z,14.10
2018-01-07T14:19:05.115Z,16.02
2018-01-07T14:21:32.195Z,15.10
2018-01-07T14:23:58.518Z,19.08
2018-01-07T14:26:24.870Z,17.65
2018-01-07T14:28:51.184Z,15.13
2018-01-07T14:31:17.506Z,16.48
2018-01-07T14:33:43.866Z,19.67
2018-01-07T14:36:10.198Z,18.30
2018-01-07T14:38:36.546Z,19.25
2018-01-07T14:41:02.914Z,23.55
2018-01-07T14:43:29.980Z,29.95
2018-01-07T14:45:56.339Z,27.48
2018-01-07T14:48:22.672Z,24.15
2018-01-07T14:50:49.026Z,24.87
2018-01-07T14:53:15.405Z,24.02
2018-01-07T14:55:41.739Z,26.55
2018-01-07T14:58:08.177Z,27.83
2018-01-07T15:00:34.497Z,25.40
2018-01-07T15:03:01.602Z,27.35
2018-01-07T15:05:27.918Z,27.27
2018-01-07T15:07:54.246Z,24.90
2018-01-07T15:10:20.588Z,24.58
2018-01-07T15:12:46.958Z,26.25
2018-01-07T15:15:14.038Z,24.75
2018-01-07T15:17:40.414Z,24.50
2018-01-07T15:20:06.771Z,26.42
2018-01-07T15:22:33.838Z,25.92
2018-01-07T15:25:00.175Z,25.48
2018-01-07T15:27:26.509Z,24.90
2018-01-07T15:29:52.929Z,25.77
2018-01-07T15:32:20.158Z,25.40
2018-01-07T15:34:46.518Z,26.52
2018-01-07T15:37:12.849Z,39.47
2018-01-07T15:39:39.200Z,33.63
2018-01-07T15:42:05.603Z,24.87
2018-01-07T15:44:32.689Z,27.75
2018-01-07T15:46:59.819Z,25.80
2018-01-07T15:49:26.154Z,25.45
2018-01-07T15:51:52.518Z,25.75
2018-01-07T15:54:18.954Z,36.45
2018-01-07T15:56:45.279Z,28.62
2018-01-07T15:59:11.631Z,30.33
2018-01-07T16:01:37.958Z,49.72
2018-01-07T16:04:04.422Z,54.70
2018-01-07T16:06:31.580Z,22.10
2018-01-07T16:08:58.650Z,22.70
2018-01-07T16:11:26.020Z,20.67
2018-01-07T16:13:52.786Z,18.48
2018-01-07T16:16:19.638Z,21.62
2018-01-07T16:18:45.994Z,17.85
2018-01-07T16:21:13.063Z,18.80
2018-01-07T16:23:39.370Z,15.77
2018-01-07T16:26:06.467Z,14.65
2018-01-07T16:28:32.796Z,12.60
2018-01-07T16:30:59.126Z,12.77
2018-01-07T16:33:25.479Z,15.43
2018-01-07T16:35:51.812Z,15.25
2018-01-07T16:38:18.122Z,15.90
2018-01-07T16:40:44.446Z,18.30
2018-01-07T16:43:10.810Z,16.60
2018-01-07T16:45:37.167Z,29.00
2018-01-07T16:48:03.510Z,17.23
2018-01-07T16:50:30.602Z,18.55
2018-01-07T16:52:56.923Z,17.70
2018-01-07T16:55:23.251Z,16.40
2018-01-07T16:57:49.610Z,19.20
2018-01-07T17:00:15.975Z,16.90
2018-01-07T17:02:43.332Z,19.48
2018-01-07T17:05:09.654Z,21.45
2018-01-07T17:07:35.966Z,18.98
2018-01-07T17:10:02.351Z,18.67
2018-01-07T17:12:29.476Z,18.95
2018-01-07T17:14:55.810Z,16.50
2018-01-07T17:17:22.183Z,17.48
2018-01-07T17:19:48.521Z,18.58
2018-01-07T17:22:15.859Z,19.55
2018-01-07T17:24:42.179Z,17.73
2018-01-07T17:27:10.264Z,18.37
2018-01-07T17:29:36.616Z,18.60
2018-01-07T17:32:02.951Z,18.60
2018-01-07T17:34:30.299Z,20.23
2018-01-07T17:36:56.618Z,20.92
2018-01-07T17:39:22.930Z,24.00
2018-01-07T17:41:50.011Z,24.10
2018-01-07T17:44:16.342Z,27.27
2018-01-07T17:46:43.226Z,29.05
2018-01-07T17:49:09.555Z,27.25
2018-01-07T17:51:35.909Z,23.10
2018-01-07T17:54:02.234Z,23.12
2018-01-07T17:56:28.571Z,21.80
2018-01-07T17:58:55.175Z,24.87
2018-01-07T18:01:21.627Z,24.90
2018-01-07T18:03:47.970Z,22.17
2018-01-07T18:06:14.311Z,23.30
2018-01-07T18:08:41.411Z,25.42
2018-01-07T18:11:07.787Z,24.67
2018-01-07T18:13:34.132Z,25.20
2018-01-07T18:16:01.223Z,26.85
2018-01-07T18:18:27.618Z,24.55
2018-01-07T18:20:54.676Z,26.58
2018-01-07T18:23:21.032Z,28.30
2018-01-07T18:25:47.379Z,24.85
2018-01-07T18:28:13.722Z,25.00
2018-01-07T18:30:40.100Z,25.23
2018-01-07T18:33:07.168Z,25.92
2018-01-07T18:35:33.529Z,25.35
2018-01-07T18:37:59.850Z,24.75
2018-01-07T18:40:26.180Z,28.45
2018-01-07T18:42:52.507Z,26.50
2018-01-07T18:45:18.860Z,25.58
2018-01-07T18:47:45.203Z,29.25
2018-01-07T18:50:11.530Z,26.05
2018-01-07T18:52:37.853Z,25.70
2018-01-07T18:55:04.218Z,25.88
2018-01-07T18:57:31.287Z,25.00
2018-01-07T18:59:58.356Z,24.60
2018-01-07T19:02:24.688Z,25.58
2018-01-07T19:04:51.007Z,25.25
2018-01-07T19:07:17.376Z,23.27
2018-01-07T19:09:43.775Z,26.80
2018-01-07T19:12:10.178Z,26.35
2018-01-07T19:14:36.494Z,27.45
2018-01-07T19:17:02.830Z,27.60
2018-01-07T19:19:29.149Z,26.15
2018-01-07T19:21:55.482Z,24.55
2018-01-07T19:24:21.829Z,28.48
2018-01-07T19:26:48.146Z,25.20
2018-01-07T19:29:15.482Z,27.05
2018-01-07T19:31:42.818Z,26.45
2018-01-07T19:34:09.130Z,27.98
2018-01-07T19:36:35.471Z,29.65
2018-01-07T19:39:01.837Z,26.67
2018-01-07T19:41:28.146Z,37.03
2018-01-07T19:43:54.474Z,34.05
2018-01-07T19:46:21.578Z,26.77
2018-01-07T19:48:49.046Z,27.70
2018-01-07T19:51:15.807Z,26.90
2018-01-07T19:53:42.190Z,26.98
2018-01-07T19:56:08.552Z,27.25
2018-01-07T19:58:35.510Z,28.42
2018-01-07T20:01:01.894Z,28.77
2018-01-07T20:03:28.990Z,26.67
2018-01-07T20:05:55.344Z,24.50
2018-01-07T20:08:21.825Z,27.20
2018-01-07T20:10:48.175Z,26.92
2018-01-07T20:13:14.576Z,27.87
2018-01-07T20:15:41.572Z,26.27
2018-01-07T20:18:07.930Z,28.83
2018-01-07T20:20:35.004Z,28.87
2018-01-07T20:23:01.382Z,29.85
2018-01-07T20:25:27.762Z,28.75
2018-01-07T20:27:54.112Z,25.25
2018-01-07T20:30:20.457Z,30.27
2018-01-07T20:32:46.813Z,29.48
2018-01-07T20:35:13.174Z,28.05
2018-01-07T20:37:40.263Z,26.80
2018-01-07T20:40:06.598Z,30.65
2018-01-07T20:42:32.959Z,29.00
2018-01-07T20:44:59.387Z,25.45
2018-01-07T20:47:26.492Z,28.75
2018-01-07T20:49:52.866Z,27.92
2018-01-07T20:52:19.258Z,30.50
2018-01-07T20:54:45.670Z,29.52
2018-01-07T20:57:12.757Z,28.48
2018-01-07T20:59:39.146Z,29.75
2018-01-07T21:02:05.538Z,28.55
2018-01-07T21:04:31.919Z,28.83
2018-01-07T21:06:58.339Z,30.83
2018-01-07T21:09:24.719Z,27.27
2018-01-07T21:11:51.077Z,30.80
2018-01-07T21:14:18.261Z,30.33
2018-01-07T21:16:44.633Z,30.23
2018-01-07T21:19:11.003Z,29.58
2018-01-07T21:21:38.095Z,27.50
2018-01-07T21:24:04.478Z,30.23
2018-01-07T21:26:31.620Z,28.75
2018-01-07T21:28:58.746Z,28.95
2018-01-07T21:31:25.094Z,31.48
2018-01-07T21:33:51.430Z,29.05
2018-01-07T21:36:18.528Z,30.40
2018-01-07T21:38:44.909Z,33.70
2018-01-07T21:41:11.994Z,30.50
2018-01-07T21:43:38.340Z,31.33
2018-01-07T21:46:04.701Z,31.60
2018-01-07T21:48:31.098Z,30.75
2018-01-07T21:50:57.481Z,30.50
2018-01-07T21:53:24.613Z,30.48
2018-01-07T21:55:50.966Z,28.77
2018-01-07T21:58:18.053Z,30.33
2018-01-07T22:00:56.693Z,29.37
2018-01-07T22:03:35.180Z,27.75
2018-01-07T22:06:13.735Z,28.08
2018-01-07T22:08:40.094Z,27.87
2018-01-07T22:11:07.238Z,27.67
2018-01-07T22:13:34.357Z,27.37
2018-01-07T22:16:00.703Z,28.62
2018-01-07T22:18:27.042Z,29.10
2018-01-07T22:20:54.426Z,28.75
2018-01-07T22:23:20.798Z,28.02
2018-01-07T22:25:47.152Z,27.55
2018-01-07T22:28:13.513Z,29.02
2018-01-07T22:30:39.887Z,28.45
2018-01-07T22:33:06.218Z,30.33
2018-01-07T22:35:32.587Z,29.67
2018-01-07T22:37:58.979Z,28.42
2018-01-07T22:40:25.354Z,30.23
2018-01-07T22:42:52.442Z,27.02
2018-01-07T22:45:18.805Z,27.15
2018-01-07T22:47:51.266Z,28.83
2018-01-07T22:50:17.662Z,30.65
2018-01-07T22:52:44.010Z,27.65
2018-01-07T22:55:10.353Z,27.65
2018-01-07T22:57:36.713Z,28.02
2018-01-07T23:00:03.180Z,25.83
2018-01-07T23:02:29.546Z,27.75
2018-01-07T23:04:55.890Z,27.55
2018-01-07T23:07:22.251Z,27.08
2018-01-07T23:09:49.387Z,27.35
2018-01-07T23:12:15.799Z,26.12
2018-01-07T23:14:42.198Z,27.05
2018-01-07T23:17:08.578Z,26.95
2018-01-07T23:19:34.990Z,27.20
2018-01-07T23:22:01.391Z,27.37
2018-01-07T23:24:29.051Z,26.90
2018-01-07T23:26:55.409Z,28.05
2018-01-07T23:29:21.742Z,28.58
2018-01-07T23:31:48.109Z,30.00
2018-01-07T23:34:15.238Z,29.98
2018-01-07T23:36:41.623Z,27.98
2018-01-07T23:39:08.982Z,29.77
2018-01-07T23:41:35.315Z,29.17
2018-01-07T23:44:01.678Z,28.08
2018-01-07T23:46:28.038Z,30.62
2018-01-07T23:48:55.138Z,28.62
2018-01-07T23:51:21.498Z,29.30
2018-01-07T23:53:47.834Z,27.85
2018-01-07T23:56:14.225Z,28.23
2018-01-07T23:58:40.564Z,29.00
